Time;durP1;ratioP1;P1;durP2;ratioP2;P2;SDS_P1;SDS_P2;PMS_P1;PMS_P2;Temp;Humidity;BMP_temperature;BMP_pressure;BME280_temperature;BME280_humidity;BME280_pressure;Samples;Min_cycle;Max_cycle;Signal;HPM_P1;HPM_P2
2023/05/09 00:01:58;;;;;;;10.27;6.00;;;15.90;99.90;;;;;;4973615;28;20432;-50
2023/05/09 00:04:24;;;;;;;7.57;5.03;;;15.90;99.90;;;;;;4974073;28;20035;-49
2023/05/09 00:06:50;;;;;;;9.13;5.60;;;15.90;99.90;;;;;;4973708;28;20039;-52
2023/05/09 00:09:16;;;;;;;9.23;5.78;;;15.90;99.90;;;;;;4974012;28;20056;-50
2023/05/09 00:11:42;;;;;;;9.65;5.57;;;15.80;99.90;;;;;;4973305;28;20038;-49
2023/05/09 00:14:09;;;;;;;9.32;5.30;;;15.80;99.90;;;;;;4973794;28;20031;-50
2023/05/09 00:16:35;;;;;;;9.60;6.13;;;15.80;99.90;;;;;;4973666;28;20122;-49
2023/05/09 00:19:03;;;;;;;9.32;5.63;;;15.80;99.90;;;;;;4972969;28;20464;-49
2023/05/09 00:21:29;;;;;;;9.52;5.50;;;15.80;99.90;;;;;;4973120;28;20508;-48
2023/05/09 00:23:55;;;;;;;10.35;6.25;;;15.70;99.90;;;;;;4973525;28;20039;-49
2023/05/09 00:26:21;;;;;;;8.98;5.97;;;15.70;99.90;;;;;;4973449;28;20034;-49
2023/05/09 00:28:48;;;;;;;14.30;8.50;;;15.70;99.90;;;;;;4973416;28;20054;-49
2023/05/09 00:31:13;;;;;;;9.02;6.07;;;15.60;99.90;;;;;;4972915;28;20022;-49
2023/05/09 00:33:39;;;;;;;10.63;6.30;;;15.70;99.90;;;;;;4973295;28;20027;-48
2023/05/09 00:36:05;;;;;;;9.95;6.30;;;15.60;99.90;;;;;;4973335;28;20043;-49
2023/05/09 00:38:31;;;;;;;11.65;7.00;;;15.70;99.90;;;;;;4973371;28;20045;-50
2023/05/09 00:40:57;;;;;;;10.10;5.93;;;15.70;99.90;;;;;;4972996;28;20031;-49
2023/05/09 00:43:23;;;;;;;10.75;6.70;;;15.70;99.90;;;;;;4973097;28;20035;-51
2023/05/09 00:45:49;;;;;;;10.40;7.05;;;15.60;99.90;;;;;;4973282;28;20110;-50
2023/05/09 00:48:15;;;;;;;9.50;6.38;;;15.60;99.90;;;;;;4973245;28;20026;-49
2023/05/09 00:50:41;;;;;;;11.07;6.90;;;15.60;99.90;;;;;;4971323;28;20129;-50
2023/05/09 00:53:08;;;;;;;10.93;6.85;;;15.60;99.90;;;;;;4971285;28;20503;-50
2023/05/09 00:55:34;;;;;;;10.85;6.95;;;15.60;99.90;;;;;;4972998;28;20033;-49
2023/05/09 00:58:01;;;;;;;10.80;6.82;;;15.50;99.90;;;;;;4972979;28;20118;-50
2023/05/09 01:00:27;;;;;;;11.82;7.15;;;15.60;99.90;;;;;;4971130;28;20031;-51
2023/05/09 01:02:54;;;;;;;12.38;7.32;;;15.60;99.90;;;;;;4971158;28;20049;-48
2023/05/09 01:05:24;;;;;;;12.23;7.20;;;15.60;99.90;;;;;;4972829;28;20046;-51
2023/05/09 01:08:35;;;;;;;12.63;7.25;;;15.60;99.90;;;;;;4971324;28;20038;-49
2023/05/09 01:11:09;;;;;;;12.05;7.10;;;15.60;99.90;;;;;;4969472;28;20058;-49
2023/05/09 01:14:03;;;;;;;13.30;7.68;;;15.60;99.90;;;;;;4972666;28;20058;-48
2023/05/09 01:16:58;;;;;;;15.65;8.40;;;15.60;99.90;;;;;;4972847;28;20460;-51
2023/05/09 01:19:55;;;;;;;14.27;7.97;;;15.60;99.90;;;;;;4967511;28;20035;-50
2023/05/09 01:22:28;;;;;;;13.77;7.60;;;15.60;99.90;;;;;;4970859;28;20027;-49
2023/05/09 01:25:00;;;;;;;14.50;7.45;;;15.70;99.90;;;;;;4971274;28;20034;-49
2023/05/09 01:27:37;;;;;;;15.85;8.43;;;15.60;99.90;;;;;;4971217;28;20085;-49
2023/05/09 01:30:05;;;;;;;13.55;7.90;;;15.60;99.90;;;;;;4972262;28;20038;-49
2023/05/09 01:32:35;;;;;;;15.10;8.23;;;15.60;99.90;;;;;;4972152;28;20065;-49
2023/05/09 01:35:03;;;;;;;14.10;7.97;;;15.60;99.90;;;;;;4971101;28;20065;-48
2023/05/09 01:37:32;;;;;;;13.70;8.27;;;15.60;99.90;;;;;;4972741;28;20030;-49
2023/05/09 01:40:05;;;;;;;14.60;8.20;;;15.60;99.90;;;;;;4971365;28;20041;-48
2023/05/09 01:42:40;;;;;;;13.60;8.43;;;15.70;99.90;;;;;;4970821;28;20035;-49
2023/05/09 01:45:08;;;;;;;14.23;8.40;;;15.70;99.90;;;;;;4971092;28;20054;-50
2023/05/09 01:47:36;;;;;;;14.80;8.10;;;15.70;99.90;;;;;;4972534;28;20038;-50
2023/05/09 01:50:03;;;;;;;14.38;9.25;;;15.70;99.90;;;;;;4972488;28;20027;-50
2023/05/09 01:52:30;;;;;;;14.45;8.43;;;15.70;99.90;;;;;;4972179;28;20038;-48
2023/05/09 01:55:00;;;;;;;17.05;9.27;;;15.70;99.90;;;;;;4972329;28;20484;-49
2023/05/09 01:57:28;;;;;;;13.85;8.30;;;15.70;99.90;;;;;;4971085;28;20058;-50
2023/05/09 01:59:56;;;;;;;15.25;9.18;;;15.70;99.90;;;;;;4970953;28;20031;-49
2023/05/09 02:02:26;;;;;;;14.55;8.98;;;15.70;99.90;;;;;;4972115;28;20054;-51
2023/05/09 02:04:54;;;;;;;13.93;9.20;;;15.60;99.90;;;;;;4972254;28;20023;-49
2023/05/09 02:07:22;;;;;;;18.60;9.80;;;15.70;99.90;;;;;;4972410;28;20039;-48
2023/05/09 02:09:55;;;;;;;15.75;9.90;;;15.60;99.90;;;;;;4970978;28;20411;-48
2023/05/09 02:12:25;;;;;;;15.87;9.30;;;15.60;99.90;;;;;;4970549;28;20090;-48
2023/05/09 02:14:51;;;;;;;15.23;8.75;;;15.60;99.90;;;;;;4972310;28;20045;-50
2023/05/09 02:17:16;;;;;;;19.80;9.63;;;15.60;99.90;;;;;;4970935;28;20026;-49
2023/05/09 02:19:43;;;;;;;18.15;9.65;;;15.60;99.90;;;;;;4972462;28;20482;-49
2023/05/09 02:22:09;;;;;;;15.02;9.73;;;15.60;99.90;;;;;;4971776;28;20126;-48
2023/05/09 02:24:35;;;;;;;16.38;10.00;;;15.60;99.90;;;;;;4971028;28;20395;-49
2023/05/09 02:27:04;;;;;;;16.55;9.40;;;15.60;99.90;;;;;;4972443;28;20042;-50
2023/05/09 02:29:38;;;;;;;;;;;15.60;99.90;;;;;;4972781;28;20041;-53
2023/05/09 02:32:12;;;;;;;16.23;9.70;;;15.70;99.90;;;;;;4971875;28;19913;-48
2023/05/09 02:34:39;;;;;;;16.98;10.18;;;15.70;99.90;;;;;;4970806;28;20050;-49
2023/05/09 02:37:06;;;;;;;17.27;9.18;;;15.80;99.90;;;;;;4972263;28;20116;-49
2023/05/09 02:39:34;;;;;;;17.00;10.40;;;15.70;99.90;;;;;;4970800;28;20027;-50
2023/05/09 02:42:06;;;;;;;17.55;9.82;;;15.70;99.90;;;;;;4971299;28;20035;-52
2023/05/09 02:44:33;;;;;;;16.20;9.70;;;15.70;99.90;;;;;;4975672;28;20035;-48
2023/05/09 02:46:59;;;;;;;17.77;10.10;;;15.70;99.90;;;;;;4957964;28;20551;-49
2023/05/09 02:49:25;;;;;;;17.70;9.75;;;15.70;99.90;;;;;;4975764;28;20058;-49
2023/05/09 02:51:51;;;;;;;18.13;10.80;;;15.60;99.90;;;;;;4973509;28;20126;-49
2023/05/09 02:54:17;;;;;;;18.55;10.35;;;15.70;99.90;;;;;;4975545;28;20113;-49
2023/05/09 02:56:43;;;;;;;16.83;10.02;;;15.70;99.90;;;;;;4973904;28;20037;-48
2023/05/09 02:59:08;;;;;;;17.33;10.25;;;15.70;99.90;;;;;;4975321;28;20029;-49
2023/05/09 03:01:34;;;;;;;19.73;10.55;;;15.70;99.90;;;;;;4973377;28;20055;-48
2023/05/09 03:04:01;;;;;;;20.90;11.07;;;15.70;99.90;;;;;;4973726;28;20045;-49
2023/05/09 03:06:27;;;;;;;19.55;10.98;;;15.70;99.90;;;;;;4973562;28;20081;-50
2023/05/09 03:08:53;;;;;;;16.88;10.02;;;15.70;99.90;;;;;;4975080;28;20062;-50
2023/05/09 03:11:22;;;;;;;19.08;10.25;;;15.70;99.90;;;;;;4973128;28;20033;-51
2023/05/09 03:13:48;;;;;;;23.67;11.45;;;15.60;99.90;;;;;;4973478;28;20058;-48
2023/05/09 03:16:16;;;;;;;22.52;11.57;;;15.70;99.90;;;;;;4973468;28;20081;-50
2023/05/09 03:18:42;;;;;;;;;;;15.70;99.90;;;;;;4974027;28;20042;-49
2023/05/09 03:21:08;;;;;;;18.40;10.63;;;15.70;99.90;;;;;;4973018;28;19914;-49
2023/05/09 03:23:36;;;;;;;21.52;11.68;;;15.70;99.90;;;;;;4973433;28;20502;-49
2023/05/09 03:26:01;;;;;;;18.58;9.75;;;15.70;99.90;;;;;;4973331;28;20034;-49
2023/05/09 03:28:28;;;;;;;21.20;10.52;;;15.60;99.90;;;;;;4973212;28;20041;-52
2023/05/09 03:30:57;;;;;;;22.05;12.05;;;15.70;99.90;;;;;;4972603;28;20481;-48
2023/05/09 03:33:25;;;;;;;21.93;11.77;;;15.70;99.90;;;;;;4973083;28;20038;-49
2023/05/09 03:35:53;;;;;;;18.35;10.38;;;15.70;99.90;;;;;;4973012;28;20054;-52
2023/05/09 03:38:18;;;;;;;26.60;12.65;;;15.70;99.90;;;;;;4946898;28;20507;-49
2023/05/09 03:40:44;;;;;;;24.73;12.38;;;15.60;99.90;;;;;;4926615;28;20032;-51
2023/05/09 03:43:11;;;;;;;29.42;12.90;;;15.60;99.90;;;;;;4948042;28;20035;-53
2023/05/09 03:45:37;;;;;;;25.52;13.38;;;15.60;99.90;;;;;;4939591;28;20462;-53
2023/05/09 03:48:07;;;;;;;25.45;12.13;;;15.60;99.90;;;;;;4940019;28;20028;-49
2023/05/09 03:50:34;;;;;;;23.77;11.63;;;15.70;99.90;;;;;;4939545;28;20034;-52
2023/05/09 03:53:01;;;;;;;27.20;12.60;;;15.70;99.90;;;;;;4942139;28;20027;-50
2023/05/09 03:55:27;;;;;;;26.92;13.63;;;15.70;99.90;;;;;;4946633;28;20023;-51
2023/05/09 03:57:53;;;;;;;27.58;14.55;;;15.70;99.90;;;;;;4940166;28;20135;-49
2023/05/09 04:00:20;;;;;;;29.65;13.45;;;15.70;99.90;;;;;;4933901;28;20039;-49
2023/05/09 04:02:56;;;;;;;29.52;13.77;;;15.70;99.90;;;;;;4939418;28;20058;-51
2023/05/09 04:05:32;;;;;;;32.70;14.40;;;15.70;99.90;;;;;;4944873;28;20111;-50
2023/05/09 04:07:58;;;;;;;30.02;13.88;;;15.70;99.90;;;;;;4942841;28;20125;-50
2023/05/09 04:10:26;;;;;;;35.25;16.30;;;15.60;99.90;;;;;;4945984;28;20421;-52
2023/05/09 04:12:53;;;;;;;34.45;15.73;;;15.60;99.90;;;;;;4940252;28;20031;-50
2023/05/09 04:15:19;;;;;;;37.80;15.73;;;15.70;99.90;;;;;;4937544;28;20027;-53
2023/05/09 04:17:45;;;;;;;40.17;16.80;;;15.70;99.90;;;;;;4936034;28;20094;-50
2023/05/09 04:20:11;;;;;;;38.08;15.45;;;15.70;99.90;;;;;;4940681;28;20047;-49
2023/05/09 04:22:37;;;;;;;44.38;17.35;;;15.70;99.90;;;;;;4942514;28;20035;-50
2023/05/09 04:25:04;;;;;;;41.63;16.98;;;15.60;99.90;;;;;;4937695;28;20038;-50
2023/05/09 04:27:29;;;;;;;40.83;16.35;;;15.60;99.90;;;;;;4944448;28;20038;-49
2023/05/09 04:29:56;;;;;;;41.17;16.95;;;15.60;99.90;;;;;;4935390;28;20024;-52
2023/05/09 04:32:22;;;;;;;44.13;18.08;;;15.60;99.90;;;;;;4937148;28;20142;-50
2023/05/09 04:34:48;;;;;;;34.58;16.58;;;15.70;99.90;;;;;;4942197;28;20038;-50
2023/05/09 04:37:19;;;;;;;32.20;15.43;;;15.70;99.90;;;;;;4939249;28;20078;-52
2023/05/09 04:39:45;;;;;;;29.73;14.63;;;15.70;99.90;;;;;;4938855;28;20028;-51
2023/05/09 04:42:18;;;;;;;32.30;14.70;;;15.70;99.90;;;;;;4938596;28;20034;-49
2023/05/09 04:44:43;;;;;;;33.63;14.52;;;15.70;99.90;;;;;;4935679;28;20035;-52
2023/05/09 04:47:09;;;;;;;30.42;14.60;;;15.70;99.90;;;;;;4939303;28;20030;-52
2023/05/09 04:49:36;;;;;;;28.45;13.23;;;15.70;99.90;;;;;;4946607;28;20026;-49
2023/05/09 04:52:02;;;;;;;27.75;14.10;;;15.60;99.90;;;;;;4937915;28;20491;-50
2023/05/09 04:54:28;;;;;;;28.98;14.55;;;15.60;99.90;;;;;;4933614;28;20038;-49
2023/05/09 04:56:53;;;;;;;30.88;14.60;;;15.60;99.90;;;;;;4948505;28;20052;-50
2023/05/09 04:59:19;;;;;;;28.58;14.57;;;15.60;99.90;;;;;;4952718;28;20023;-48
2023/05/09 05:01:45;;;;;;;28.70;14.52;;;15.50;99.90;;;;;;4947772;28;20035;-51
2023/05/09 05:04:12;;;;;;;28.77;14.23;;;15.60;99.90;;;;;;4935422;28;20134;-51
2023/05/09 05:06:37;;;;;;;30.35;14.35;;;15.50;99.90;;;;;;4941060;28;20027;-54
2023/05/09 05:09:03;;;;;;;31.73;14.85;;;15.50;99.90;;;;;;4940104;28;20065;-50
2023/05/09 05:11:30;;;;;;;27.63;13.63;;;15.50;99.90;;;;;;4936981;28;20039;-52
2023/05/09 05:13:56;;;;;;;30.60;14.70;;;15.50;99.90;;;;;;4936582;28;20034;-52
2023/05/09 05:16:22;;;;;;;30.05;14.57;;;15.50;99.90;;;;;;4943282;28;20020;-52
2023/05/09 05:18:48;;;;;;;29.25;15.98;;;15.50;99.90;;;;;;4936574;28;20028;-49
2023/05/09 05:21:15;;;;;;;34.03;14.75;;;15.50;99.90;;;;;;4943569;28;20081;-50
2023/05/09 05:23:42;;;;;;;32.55;15.70;;;15.60;99.90;;;;;;4933964;28;20036;-51
2023/05/09 05:26:09;;;;;;;35.15;15.20;;;15.60;99.90;;;;;;4935453;28;20447;-50
2023/05/09 05:28:35;;;;;;;35.65;15.93;;;15.70;99.90;;;;;;4933151;28;20027;-50
2023/05/09 05:31:02;;;;;;;33.50;15.48;;;15.60;99.90;;;;;;4936123;28;20127;-51
2023/05/09 05:33:28;;;;;;;33.92;15.27;;;15.60;99.90;;;;;;4936955;28;20031;-49
2023/05/09 05:35:54;;;;;;;33.40;15.20;;;15.70;99.90;;;;;;4945394;28;20106;-53
2023/05/09 05:38:20;;;;;;;36.40;15.27;;;15.70;99.90;;;;;;4948772;28;20107;-50
2023/05/09 05:40:50;;;;;;;31.13;14.07;;;15.70;99.90;;;;;;4944054;28;20074;-50
2023/05/09 05:43:16;;;;;;;40.30;16.30;;;15.60;99.90;;;;;;4943687;28;20031;-52
2023/05/09 05:45:42;;;;;;;37.65;16.73;;;15.70;99.90;;;;;;4948540;28;20579;-50
2023/05/09 05:48:13;;;;;;;42.40;16.55;;;15.70;99.90;;;;;;4945352;28;20122;-50
2023/05/09 05:50:39;;;;;;;41.03;15.70;;;15.90;99.90;;;;;;4947316;28;20556;-50
2023/05/09 05:53:05;;;;;;;38.70;16.08;;;15.90;99.90;;;;;;4936777;28;20369;-51
2023/05/09 05:55:32;;;;;;;48.55;17.08;;;16.10;99.90;;;;;;4940878;28;20399;-49
2023/05/09 05:57:57;;;;;;;53.65;19.42;;;16.20;99.90;;;;;;4946794;28;20027;-50
2023/05/09 06:00:24;;;;;;;50.35;17.50;;;16.40;99.90;;;;;;4925777;29;20050;-50
2023/05/09 06:02:57;;;;;;;46.70;17.50;;;16.40;99.90;;;;;;4945018;28;20031;-50
2023/05/09 06:05:45;;;;;;;37.97;16.85;;;16.40;99.90;;;;;;4936563;28;20043;-50
2023/05/09 06:08:11;;;;;;;43.67;17.33;;;16.60;99.90;;;;;;4946654;28;20054;-50
2023/05/09 06:10:37;;;;;;;47.63;18.65;;;16.70;99.90;;;;;;4929141;28;20503;-48
2023/05/09 06:13:02;;;;;;;38.72;16.27;;;16.80;99.90;;;;;;4943906;28;20440;-46
2023/05/09 06:15:28;;;;;;;45.65;18.73;;;16.90;99.90;;;;;;4941076;28;20027;-51
2023/05/09 06:17:54;;;;;;;51.58;18.83;;;17.00;99.90;;;;;;4933418;28;20554;-49
2023/05/09 06:20:20;;;;;;;45.25;17.67;;;17.00;99.90;;;;;;4951827;28;20023;-49
2023/05/09 06:22:46;;;;;;;48.30;18.13;;;17.00;99.90;;;;;;4940999;28;20385;-49
2023/05/09 06:25:12;;;;;;;38.47;18.13;;;17.00;99.90;;;;;;4942349;28;20032;-52
2023/05/09 06:27:37;;;;;;;46.78;18.27;;;17.00;99.90;;;;;;4947711;28;20101;-49
2023/05/09 06:30:04;;;;;;;40.42;17.05;;;16.90;99.90;;;;;;4951803;28;20030;-50
2023/05/09 06:32:29;;;;;;;39.80;16.00;;;17.00;99.90;;;;;;4943074;28;20062;-50
2023/05/09 06:34:55;;;;;;;34.13;15.60;;;17.00;99.90;;;;;;4945226;28;20118;-49
2023/05/09 06:37:21;;;;;;;34.55;15.60;;;17.10;99.90;;;;;;4953110;28;20019;-50
2023/05/09 06:39:46;;;;;;;31.95;14.45;;;17.30;99.90;;;;;;4945001;28;20143;-50
2023/05/09 06:42:12;;;;;;;27.40;13.73;;;17.40;99.90;;;;;;4945765;28;20078;-49
2023/05/09 06:44:38;;;;;;;25.40;13.23;;;17.50;99.90;;;;;;4944966;28;20127;-51
2023/05/09 06:47:04;;;;;;;26.90;13.00;;;17.50;99.90;;;;;;4952831;28;20121;-50
2023/05/09 06:49:30;;;;;;;26.50;13.60;;;17.60;99.90;;;;;;4950289;28;20120;-49
2023/05/09 06:51:55;;;;;;;22.42;11.65;;;17.70;99.90;;;;;;4934130;28;20115;-48
2023/05/09 06:54:21;;;;;;;23.50;11.88;;;17.80;99.90;;;;;;4943658;28;20024;-47
2023/05/09 06:56:47;;;;;;;17.80;10.30;;;17.90;99.90;;;;;;4948219;28;20023;-48
2023/05/09 06:59:15;;;;;;;18.60;10.60;;;17.90;99.90;;;;;;4938922;28;20134;-53
2023/05/09 07:01:41;;;;;;;19.58;11.65;;;17.90;99.90;;;;;;4937433;28;20030;-48
2023/05/09 07:04:07;;;;;;;18.80;10.25;;;17.90;99.90;;;;;;4941442;28;20472;-50
2023/05/09 07:06:32;;;;;;;20.05;11.10;;;18.10;99.90;;;;;;4940825;28;20114;-49
2023/05/09 07:08:58;;;;;;;15.88;9.60;;;18.20;99.90;;;;;;4938953;28;20043;-49
2023/05/09 07:11:24;;;;;;;13.98;8.50;;;18.30;99.90;;;;;;4949688;28;20122;-50
2023/05/09 07:13:50;;;;;;;14.30;9.13;;;18.40;99.90;;;;;;4944808;28;20024;-51
2023/05/09 07:16:17;;;;;;;12.98;8.52;;;18.50;99.90;;;;;;4943952;28;20023;-50
2023/05/09 07:18:43;;;;;;;16.30;9.88;;;18.50;99.90;;;;;;4935900;28;20642;-49
2023/05/09 07:21:09;;;;;;;13.75;8.90;;;18.50;99.90;;;;;;4937842;28;20038;-49
2023/05/09 07:23:34;;;;;;;15.38;9.68;;;18.50;99.90;;;;;;4933646;28;20024;-49
2023/05/09 07:26:00;;;;;;;15.82;9.48;;;18.60;99.90;;;;;;4941886;28;20362;-51
2023/05/09 07:28:26;;;;;;;16.95;9.52;;;18.70;99.90;;;;;;4933467;28;20086;-51
2023/05/09 07:30:54;;;;;;;15.48;8.85;;;18.70;99.90;;;;;;4933843;28;20827;-52
2023/05/09 07:33:20;;;;;;;14.90;8.67;;;18.60;99.90;;;;;;4941614;28;20031;-52
2023/05/09 07:35:45;;;;;;;12.95;8.63;;;18.50;99.90;;;;;;4948224;28;20597;-49
2023/05/09 07:38:11;;;;;;;15.80;9.10;;;18.50;99.90;;;;;;4943665;28;20058;-51
2023/05/09 07:40:37;;;;;;;16.08;9.93;;;18.50;99.90;;;;;;4943768;28;20052;-52
2023/05/09 07:43:03;;;;;;;15.52;9.57;;;18.60;99.90;;;;;;4942057;28;20023;-50
2023/05/09 07:45:29;;;;;;;13.02;8.80;;;18.50;99.90;;;;;;4940851;28;20353;-52
2023/05/09 07:47:55;;;;;;;13.13;8.50;;;18.50;99.90;;;;;;4940076;28;20031;-53
2023/05/09 07:50:22;;;;;;;14.57;9.15;;;18.50;99.90;;;;;;4936749;28;20079;-50
2023/05/09 07:52:48;;;;;;;14.52;9.70;;;18.60;99.90;;;;;;4946590;28;20050;-51
2023/05/09 07:55:14;;;;;;;17.05;10.05;;;18.50;99.90;;;;;;4945788;28;20023;-50
2023/05/09 07:57:39;;;;;;;14.98;9.30;;;18.50;99.90;;;;;;4938614;28;20042;-51
2023/05/09 08:00:06;;;;;;;16.08;9.63;;;18.60;99.90;;;;;;4939723;28;20028;-51
2023/05/09 08:02:39;;;;;;;17.08;9.77;;;18.50;99.90;;;;;;4937699;28;20472;-49
2023/05/09 08:05:05;;;;;;;14.73;9.60;;;18.60;99.90;;;;;;4959112;23;21464;-48
2023/05/09 08:07:31;;;;;;;14.73;8.55;;;18.70;99.90;;;;;;4998842;28;20037;-49
2023/05/09 08:09:56;;;;;;;13.10;8.18;;;18.80;99.90;;;;;;5006083;28;20028;-48
2023/05/09 08:12:22;;;;;;;12.02;7.25;;;18.90;99.90;;;;;;5000279;28;20030;-52
2023/05/09 08:14:48;;;;;;;12.55;7.68;;;18.90;99.90;;;;;;4990661;28;20034;-51
2023/05/09 08:17:14;;;;;;;10.40;6.22;;;19.00;99.90;;;;;;5000264;28;20088;-52
2023/05/09 08:19:39;;;;;;;12.15;7.28;;;19.10;99.90;;;;;;4990706;28;20026;-50
2023/05/09 08:22:05;;;;;;;14.32;7.78;;;19.10;99.90;;;;;;4999612;28;20091;-50
2023/05/09 08:24:31;;;;;;;10.95;6.65;;;19.20;99.90;;;;;;5000331;28;20592;-52
2023/05/09 08:26:57;;;;;;;10.50;6.35;;;19.30;99.90;;;;;;5005629;28;20053;-51
2023/05/09 08:29:22;;;;;;;13.77;7.65;;;19.60;99.90;;;;;;4999764;28;20021;-50
2023/05/09 08:31:48;;;;;;;11.15;6.63;;;19.70;99.90;;;;;;4986548;28;20035;-50
2023/05/09 08:34:14;;;;;;;10.55;6.57;;;19.80;99.90;;;;;;4991356;28;20464;-53
2023/05/09 08:36:40;;;;;;;11.40;6.07;;;19.80;99.90;;;;;;4996117;28;20041;-51
2023/05/09 08:39:06;;;;;;;11.73;7.35;;;20.00;99.90;;;;;;4997853;28;20483;-53
2023/05/09 08:41:34;;;;;;;10.38;7.05;;;20.10;99.90;;;;;;4989349;28;20019;-49
2023/05/09 08:44:01;;;;;;;10.88;6.63;;;20.20;99.90;;;;;;4993267;28;20110;-50
2023/05/09 08:46:40;;;;;;;10.30;6.32;;;20.20;99.90;;;;;;4983135;28;20023;-49
2023/05/09 08:49:07;;;;;;;11.02;7.15;;;20.00;99.90;;;;;;4988704;28;20125;-50
2023/05/09 08:51:34;;;;;;;8.45;5.82;;;20.00;99.90;;;;;;4988815;28;20030;-47
2023/05/09 08:54:00;;;;;;;9.13;5.63;;;19.80;99.90;;;;;;4985742;28;20072;-52
2023/05/09 08:56:26;;;;;;;9.02;6.03;;;19.80;99.90;;;;;;4990697;28;20050;-48
2023/05/09 08:58:54;;;;;;;6.85;4.43;;;19.80;99.90;;;;;;4986703;28;20620;-48
2023/05/09 09:01:21;;;;;;;7.70;4.33;;;19.90;99.90;;;;;;4987634;28;20565;-48
2023/05/09 09:03:48;;;;;;;7.60;4.53;;;20.00;99.90;;;;;;4988032;28;20441;-47
2023/05/09 09:06:15;;;;;;;8.82;4.95;;;20.20;99.90;;;;;;4990082;28;20030;-48
2023/05/09 09:08:42;;;;;;;8.15;4.22;;;20.30;99.90;;;;;;4984819;28;20126;-47
2023/05/09 09:11:13;;;;;;;8.27;4.65;;;20.30;99.90;;;;;;4988387;28;20046;-47
2023/05/09 09:13:40;;;;;;;5.15;3.13;;;20.30;99.90;;;;;;4992025;28;20168;-48
2023/05/09 09:16:10;;;;;;;5.68;3.70;;;20.30;99.90;;;;;;4987370;28;20106;-49
2023/05/09 09:18:36;;;;;;;6.35;3.75;;;20.40;99.90;;;;;;4985222;28;20057;-48
2023/05/09 09:21:08;;;;;;;5.68;3.33;;;20.40;99.90;;;;;;4988804;28;20050;-48
2023/05/09 09:23:35;;;;;;;7.22;3.88;;;20.50;99.90;;;;;;4984323;28;20044;-48
2023/05/09 09:26:05;;;;;;;7.22;4.18;;;20.80;99.90;;;;;;4985715;28;20030;-47
2023/05/09 09:28:32;;;;;;;6.75;4.10;;;20.70;99.90;;;;;;4985847;28;20104;-49
2023/05/09 09:30:57;;;;;;;5.93;3.67;;;20.50;99.90;;;;;;4995872;28;20057;-47
2023/05/09 09:33:25;;;;;;;7.55;4.15;;;20.40;99.90;;;;;;5007687;28;20060;-49
2023/05/09 09:35:52;;;;;;;6.22;3.88;;;20.60;99.90;;;;;;5000075;28;20053;-49
2023/05/09 09:38:19;;;;;;;6.75;3.75;;;20.50;99.90;;;;;;4989372;28;20336;-48
2023/05/09 09:41:03;;;;;;;5.35;3.65;;;20.30;99.90;;;;;;5002049;28;20137;-47
2023/05/09 09:43:30;;;;;;;7.20;3.97;;;20.40;99.90;;;;;;4988848;28;20030;-48
2023/05/09 09:45:56;;;;;;;5.75;3.95;;;20.50;99.90;;;;;;5000788;28;20058;-48
2023/05/09 09:48:26;;;;;;;5.13;3.13;;;20.60;99.90;;;;;;4996672;28;20022;-51
2023/05/09 09:50:58;;;;;;;4.35;2.90;;;20.60;99.90;;;;;;4997299;28;20423;-48
2023/05/09 09:53:28;;;;;;;5.43;2.78;;;20.50;99.90;;;;;;4992303;28;20041;-48
2023/05/09 09:55:54;;;;;;;4.50;2.67;;;20.40;99.90;;;;;;5000256;28;20105;-48
2023/05/09 09:58:24;;;;;;;6.28;3.13;;;20.40;99.90;;;;;;5009510;28;20186;-49
2023/05/09 10:01:12;;;;;;;5.85;3.00;;;20.50;99.90;;;;;;5002632;28;20041;-48
2023/05/09 10:03:43;;;;;;;3.75;2.50;;;20.50;99.90;;;;;;5005498;28;20036;-51
2023/05/09 10:06:11;;;;;;;5.32;2.63;;;20.60;99.90;;;;;;5001823;28;20034;-49
2023/05/09 10:08:36;;;;;;;4.25;2.42;;;20.60;99.90;;;;;;5012058;28;20034;-48
2023/05/09 10:11:02;;;;;;;3.95;2.17;;;20.60;99.90;;;;;;4994408;28;20038;-47
2023/05/09 10:13:28;;;;;;;3.47;2.10;;;20.60;99.90;;;;;;5000728;28;20037;-49
2023/05/09 10:15:56;;;;;;;4.15;2.50;;;20.60;99.90;;;;;;4992748;28;20022;-48
2023/05/09 10:18:32;;;;;;;5.03;2.38;;;20.60;99.90;;;;;;5000249;28;20386;-48
2023/05/09 10:21:00;;;;;;;3.33;2.03;;;20.50;99.90;;;;;;4988394;28;20026;-47
2023/05/09 10:23:29;;;;;;;5.05;2.30;;;20.50;99.90;;;;;;4991809;28;20030;-49
2023/05/09 10:26:14;;;;;;;4.78;2.60;;;20.60;99.90;;;;;;4994301;28;20141;-49
2023/05/09 10:28:43;;;;;;;6.75;3.00;;;20.70;99.90;;;;;;4980815;28;20023;-48
2023/05/09 10:31:21;;;;;;;11.02;6.72;;;20.60;99.90;;;;;;4997768;28;20192;-50
2023/05/09 10:33:48;;;;;;;9.98;6.13;;;20.60;99.90;;;;;;4999832;28;20442;-49
2023/05/09 10:36:22;;;;;;;6.30;3.50;;;20.60;99.90;;;;;;5001770;28;20459;-49
2023/05/09 10:38:52;;;;;;;13.65;6.88;;;20.60;99.90;;;;;;5004401;28;20035;-49
2023/05/09 10:41:20;;;;;;;4.60;2.80;;;20.60;99.90;;;;;;4990868;28;20096;-47
2023/05/09 10:43:47;;;;;;;6.15;3.17;;;20.70;99.90;;;;;;4991559;28;20026;-49
2023/05/09 10:46:13;;;;;;;4.72;2.50;;;20.80;99.90;;;;;;5008037;28;20034;-52
2023/05/09 10:48:41;;;;;;;7.20;4.15;;;20.80;99.90;;;;;;4999799;28;20096;-49
2023/05/09 10:51:07;;;;;;;5.55;3.10;;;20.90;99.90;;;;;;5007467;28;20104;-49
2023/05/09 10:53:47;;;;;;;6.00;3.78;;;20.90;99.90;;;;;;4991590;28;20416;-48
2023/05/09 10:56:29;;;;;;;4.57;2.70;;;21.20;99.90;;;;;;5001808;28;20022;-51
2023/05/09 10:58:55;;;;;;;5.07;2.80;;;21.30;99.90;;;;;;5009896;28;20435;-52
2023/05/09 11:01:35;;;;;;;3.72;2.30;;;21.40;99.90;;;;;;5003453;28;20386;-49
2023/05/09 11:04:09;;;;;;;5.55;2.08;;;21.50;99.90;;;;;;5002257;28;20395;-48
2023/05/09 11:06:44;;;;;;;3.67;2.10;;;21.50;99.90;;;;;;4997897;28;20045;-50
2023/05/09 11:09:28;;;;;;;5.88;2.70;;;21.60;99.90;;;;;;5008573;28;20297;-52
2023/05/09 11:12:14;;;;;;;3.22;2.00;;;21.60;99.90;;;;;;4997518;28;20498;-48
2023/05/09 11:14:43;;;;;;;2.65;1.73;;;21.60;99.90;;;;;;5004427;28;20053;-48
2023/05/09 11:17:12;;;;;;;3.67;1.75;;;21.60;99.90;;;;;;5000163;28;20320;-49
2023/05/09 11:19:46;;;;;;;3.63;1.63;;;21.70;99.90;;;;;;5001539;28;20098;-48
2023/05/09 11:22:26;;;;;;;2.92;1.67;;;21.70;99.90;;;;;;4990525;28;20133;-48
2023/05/09 11:25:08;;;;;;;4.38;2.03;;;21.70;99.90;;;;;;4998763;28;20446;-48
2023/05/09 11:27:45;;;;;;;3.03;2.10;;;21.70;99.90;;;;;;4996036;28;20037;-48
2023/05/09 11:30:13;;;;;;;3.80;2.20;;;21.90;99.90;;;;;;5001843;28;20034;-49
2023/05/09 11:32:57;;;;;;;4.15;2.00;;;21.90;99.90;;;;;;5004868;28;20026;-50
2023/05/09 11:35:25;;;;;;;3.55;2.13;;;22.10;99.90;;;;;;4997651;28;20030;-48
2023/05/09 11:38:02;;;;;;;3.47;2.17;;;22.30;99.90;;;;;;5002176;28;20152;-50
2023/05/09 11:40:29;;;;;;;4.68;2.08;;;22.40;99.90;;;;;;5002442;28;20093;-49
2023/05/09 11:42:56;;;;;;;2.55;1.90;;;22.40;99.90;;;;;;4990323;28;20152;-51
2023/05/09 11:45:24;;;;;;;4.03;1.95;;;22.40;99.90;;;;;;4993246;28;20025;-48
2023/05/09 11:47:50;;;;;;;2.65;1.80;;;22.40;99.90;;;;;;4995476;28;20034;-48
2023/05/09 11:50:18;;;;;;;3.80;2.30;;;22.40;99.90;;;;;;4989717;28;20026;-48
2023/05/09 11:52:46;;;;;;;5.03;2.10;;;22.40;99.90;;;;;;5004219;28;20033;-49
2023/05/09 11:55:14;;;;;;;3.08;2.10;;;22.40;99.90;;;;;;4997388;28;20041;-48
2023/05/09 11:57:53;;;;;;;2.65;1.95;;;22.30;99.90;;;;;;5004682;28;20026;-49
2023/05/09 12:00:21;;;;;;;3.08;2.00;;;22.30;99.90;;;;;;5005855;28;20122;-49
2023/05/09 12:02:47;;;;;;;3.45;2.05;;;22.20;99.90;;;;;;4994643;28;20041;-48
2023/05/09 12:05:15;;;;;;;3.65;2.00;;;22.00;99.90;;;;;;5007937;28;20387;-48
2023/05/09 12:07:41;;;;;;;2.87;1.90;;;21.80;99.90;;;;;;5004319;28;20038;-48
2023/05/09 12:10:14;;;;;;;4.80;2.00;;;21.90;99.90;;;;;;4997804;28;20030;-47
2023/05/09 12:12:49;;;;;;;3.28;1.80;;;21.90;99.90;;;;;;4997813;28;20466;-48
2023/05/09 12:15:15;;;;;;;3.85;1.80;;;22.00;99.90;;;;;;4996840;28;20088;-49
2023/05/09 12:17:42;;;;;;;3.50;1.92;;;22.10;99.90;;;;;;5002477;28;20045;-48
2023/05/09 12:20:09;;;;;;;3.00;1.80;;;22.00;99.90;;;;;;4998510;28;20053;-49
2023/05/09 12:22:38;;;;;;;4.15;1.85;;;21.90;99.90;;;;;;4995469;28;20080;-50
2023/05/09 12:25:09;;;;;;;3.03;1.88;;;22.00;99.90;;;;;;4990569;28;20065;-48
2023/05/09 12:27:36;;;;;;;7.45;1.98;;;21.90;99.90;;;;;;5009130;28;20037;-49
2023/05/09 12:30:09;;;;;;;2.42;1.40;;;21.90;99.90;;;;;;5009033;28;20077;-48
2023/05/09 12:32:38;;;;;;;2.25;1.30;;;21.90;99.80;;;;;;5004692;28;20030;-50
2023/05/09 12:35:05;;;;;;;4.18;1.80;;;21.70;99.90;;;;;;4997612;28;20467;-48
2023/05/09 12:37:31;;;;;;;2.67;1.23;;;21.60;99.90;;;;;;4989945;28;20517;-49
2023/05/09 12:40:00;;;;;;;2.22;1.30;;;21.80;99.80;;;;;;5004988;28;20014;-48
2023/05/09 12:42:27;;;;;;;2.22;1.20;;;21.80;99.80;;;;;;4997388;28;20367;-48
2023/05/09 12:44:53;;;;;;;1.83;1.20;;;21.90;99.80;;;;;;4989288;28;20026;-48